createdAt,value
2023-03-23T00:00:40.330Z,9.1
2023-03-23T00:15:39.063Z,8.7
2023-03-23T00:30:40.459Z,8.8
2023-03-23T00:45:40.337Z,8.7
2023-03-23T01:00:41.106Z,8.7
2023-03-23T01:15:45.280Z,8.8
2023-03-23T01:30:57.428Z,8.6
2023-03-23T01:45:44.398Z,8.6
2023-03-23T02:00:41.447Z,8.1
2023-03-23T02:15:43.441Z,8
2023-03-23T02:30:44.378Z,8.1
2023-03-23T02:45:45.016Z,8.1
2023-03-23T03:01:10.759Z,8.1
2023-03-23T03:15:49.471Z,8.1
2023-03-23T03:30:54.706Z,7.8
2023-03-23T03:45:45.721Z,7.7
2023-03-23T04:00:47.097Z,7.9
2023-03-23T04:16:14.290Z,7.9
2023-03-23T04:31:06.373Z,7.9
2023-03-23T04:45:50.817Z,8.4
2023-03-23T05:00:49.798Z,8.3
2023-03-23T05:32:09.109Z,8.1
2023-03-23T05:46:39.567Z,8.3
2023-03-23T06:01:50.584Z,8.6
2023-03-23T06:16:42.989Z,9.1
2023-03-23T06:31:42.279Z,9.1
2023-03-23T06:46:38.803Z,9.4
2023-03-23T07:01:39.076Z,9.6
2023-03-23T07:16:42.114Z,9.6
2023-03-23T07:31:40.604Z,10.2
2023-03-23T07:47:09.026Z,10.2
2023-03-23T08:01:42.044Z,11.4
2023-03-23T08:16:42.375Z,12.3
2023-03-23T08:31:42.999Z,12.6
2023-03-23T08:46:50.662Z,12.6
2023-03-23T09:01:54.858Z,12.6
2023-03-23T09:16:47.186Z,13.7
2023-03-23T09:31:45.566Z,14.5
2023-03-23T09:46:45.872Z,14.5
2023-03-23T10:01:52.159Z,14.5
2023-03-23T10:16:49.243Z,14.5
2023-03-23T10:31:49.815Z,14.8
2023-03-23T10:46:49.692Z,15
2023-03-23T11:01:48.198Z,16.7
2023-03-23T11:16:48.637Z,16
2023-03-23T11:31:49.470Z,15.9
2023-03-23T11:46:50.116Z,16.2
2023-03-23T12:01:53.053Z,16.2
2023-03-23T12:16:51.004Z,16.1
2023-03-23T12:31:51.730Z,16.5
2023-03-23T12:46:51.806Z,16.4
2023-03-23T13:01:53.384Z,16.4
2023-03-23T13:16:52.992Z,16.4
2023-03-23T13:31:56.873Z,16.4
2023-03-23T13:46:58.640Z,16.6
2023-03-23T14:01:59.481Z,16.3
2023-03-23T14:16:59.965Z,15.9
2023-03-23T14:32:00.978Z,15.8
2023-03-23T14:47:01.101Z,15.8
2023-03-23T15:02:01.974Z,15.7
2023-03-23T15:17:08.247Z,15.7
2023-03-23T15:32:19.106Z,15.4
2023-03-23T15:47:08.127Z,15.2
2023-03-23T16:02:03.795Z,15
2023-03-23T16:17:04.786Z,14.9
2023-03-23T16:32:08.034Z,14.9
2023-03-23T16:47:05.501Z,14.3
2023-03-23T17:02:08.860Z,14.3
2023-03-23T17:17:06.864Z,13.9
2023-03-23T17:32:08.220Z,13.8
2023-03-23T17:47:10.651Z,13.8
2023-03-23T18:02:08.804Z,13.5
2023-03-23T18:17:08.394Z,13.4
2023-03-23T18:32:13.141Z,13.4
2023-03-23T19:02:10.094Z,13.1
2023-03-23T19:17:13.123Z,13.1
2023-03-23T20:00:02.574Z,12.8
2023-03-23T20:02:21.344Z,12.8
2023-03-23T20:17:15.510Z,12.8
2023-03-23T20:32:23.973Z,12.6
2023-03-23T20:47:16.370Z,12.4
2023-03-23T21:02:17.023Z,12.5
2023-03-23T21:17:15.345Z,12
2023-03-23T21:32:16.043Z,11.8
2023-03-23T21:47:15.933Z,11.9
2023-03-23T22:02:16.252Z,11.5
2023-03-23T22:32:19.059Z,11.5
2023-03-23T22:47:17.336Z,11.3
2023-03-23T23:00:48.957Z,11.1
2023-03-23T23:30:41.322Z,10.9
2023-03-23T23:45:41.676Z,11
